sensor_id;sensor_type;location;lat;lon;timestamp;temperature;humidity
19000;DHT22;9633;50.980;13.850;2023-04-25T00:00:09;8.70;99.90
19000;DHT22;9633;50.980;13.850;2023-04-25T00:01:45;8.70;99.90
19000;DHT22;9633;50.980;13.850;2023-04-25T00:03:18;8.70;99.90
19000;DHT22;9633;50.980;13.850;2023-04-25T00:04:51;8.70;99.90
19000;DHT22;9633;50.980;13.850;2023-04-25T00:06:24;8.70;99.90
19000;DHT22;9633;50.980;13.850;2023-04-25T00:07:58;8.80;99.90
19000;DHT22;9633;50.980;13.850;2023-04-25T00:09:32;8.80;99.90
19000;DHT22;9633;50.980;13.850;2023-04-25T00:11:05;8.90;99.90
19000;DHT22;9633;50.980;13.850;2023-04-25T00:12:40;8.90;99.90
19000;DHT22;9633;50.980;13.850;2023-04-25T00:14:13;9.00;99.90
19000;DHT22;9633;50.980;13.850;2023-04-25T00:15:46;8.90;99.90
19000;DHT22;9633;50.980;13.850;2023-04-25T00:17:20;9.00;99.90
19000;DHT22;9633;50.980;13.850;2023-04-25T00:18:53;9.00;99.90
19000;DHT22;9633;50.980;13.850;2023-04-25T00:20:26;9.00;99.90
19000;DHT22;9633;50.980;13.850;2023-04-25T00:21:59;9.00;99.90
19000;DHT22;9633;50.980;13.850;2023-04-25T00:23:33;9.00;99.90
19000;DHT22;9633;50.980;13.850;2023-04-25T00:25:07;9.00;99.90
19000;DHT22;9633;50.980;13.850;2023-04-25T00:26:40;9.00;99.90
19000;DHT22;9633;50.980;13.850;2023-04-25T00:28:16;9.00;99.90
19000;DHT22;9633;50.980;13.850;2023-04-25T00:29:49;9.00;99.90
19000;DHT22;9633;50.980;13.850;2023-04-25T00:31:22;9.00;99.90
19000;DHT22;9633;50.980;13.850;2023-04-25T00:32:55;9.00;99.90
19000;DHT22;9633;50.980;13.850;2023-04-25T00:34:28;9.00;99.90
19000;DHT22;9633;50.980;13.850;2023-04-25T00:36:02;9.00;99.90
19000;DHT22;9633;50.980;13.850;2023-04-25T00:37:35;9.10;99.90
19000;DHT22;9633;50.980;13.850;2023-04-25T00:39:09;9.00;99.90
19000;DHT22;9633;50.980;13.850;2023-04-25T00:40:42;8.90;99.90
19000;DHT22;9633;50.980;13.850;2023-04-25T00:42:16;9.00;99.90
19000;DHT22;9633;50.980;13.850;2023-04-25T00:43:51;8.90;99.90
19000;DHT22;9633;50.980;13.850;2023-04-25T00:45:27;8.90;99.90
19000;DHT22;9633;50.980;13.850;2023-04-25T00:47:02;8.90;99.90
19000;DHT22;9633;50.980;13.850;2023-04-25T00:48:35;8.80;99.90
19000;DHT22;9633;50.980;13.850;2023-04-25T00:50:09;8.80;99.90
19000;DHT22;9633;50.980;13.850;2023-04-25T00:51:43;8.70;99.90
19000;DHT22;9633;50.980;13.850;2023-04-25T00:53:17;8.70;99.90
19000;DHT22;9633;50.980;13.850;2023-04-25T00:54:50;8.60;99.90
19000;DHT22;9633;50.980;13.850;2023-04-25T00:56:23;8.60;99.90
19000;DHT22;9633;50.980;13.850;2023-04-25T00:57:56;8.50;99.90
19000;DHT22;9633;50.980;13.850;2023-04-25T00:59:31;8.50;99.90
19000;DHT22;9633;50.980;13.850;2023-04-25T01:01:04;8.40;99.90
19000;DHT22;9633;50.980;13.850;2023-04-25T01:02:39;8.40;99.90
19000;DHT22;9633;50.980;13.850;2023-04-25T01:04:13;8.30;99.90
19000;DHT22;9633;50.980;13.850;2023-04-25T01:05:47;8.30;99.90
19000;DHT22;9633;50.980;13.850;2023-04-25T01:07:20;8.30;99.90
19000;DHT22;9633;50.980;13.850;2023-04-25T01:08:53;8.30;99.90
19000;DHT22;9633;50.980;13.850;2023-04-25T01:10:27;8.30;99.90
19000;DHT22;9633;50.980;13.850;2023-04-25T01:12:00;8.20;99.90
19000;DHT22;9633;50.980;13.850;2023-04-25T01:13:34;8.20;99.90
19000;DHT22;9633;50.980;13.850;2023-04-25T01:15:09;8.20;99.90
19000;DHT22;9633;50.980;13.850;2023-04-25T01:16:42;8.20;99.90
19000;DHT22;9633;50.980;13.850;2023-04-25T01:18:16;8.10;99.90
19000;DHT22;9633;50.980;13.850;2023-04-25T01:19:50;8.10;99.90
19000;DHT22;9633;50.980;13.850;2023-04-25T01:21:24;8.20;99.90
19000;DHT22;9633;50.980;13.850;2023-04-25T01:23:00;8.20;99.90
19000;DHT22;9633;50.980;13.850;2023-04-25T01:24:34;8.10;99.90
19000;DHT22;9633;50.980;13.850;2023-04-25T01:26:09;8.10;99.90
19000;DHT22;9633;50.980;13.850;2023-04-25T01:27:41;8.10;99.90
19000;DHT22;9633;50.980;13.850;2023-04-25T01:29:15;8.00;99.90
19000;DHT22;9633;50.980;13.850;2023-04-25T01:30:47;8.00;99.90
19000;DHT22;9633;50.980;13.850;2023-04-25T01:32:22;8.00;99.90
19000;DHT22;9633;50.980;13.850;2023-04-25T01:33:55;8.00;99.90
19000;DHT22;9633;50.980;13.850;2023-04-25T01:35:28;7.90;99.90
19000;DHT22;9633;50.980;13.850;2023-04-25T01:37:03;7.90;99.90
19000;DHT22;9633;50.980;13.850;2023-04-25T01:38:36;7.80;99.90
19000;DHT22;9633;50.980;13.850;2023-04-25T01:40:11;7.80;99.90
19000;DHT22;9633;50.980;13.850;2023-04-25T01:41:44;7.80;99.90
19000;DHT22;9633;50.980;13.850;2023-04-25T01:43:18;7.80;99.90
19000;DHT22;9633;50.980;13.850;2023-04-25T01:44:50;7.80;99.90
19000;DHT22;9633;50.980;13.850;2023-04-25T01:46:23;7.80;99.90
19000;DHT22;9633;50.980;13.850;2023-04-25T01:47:57;7.70;99.90
19000;DHT22;9633;50.980;13.850;2023-04-25T01:49:31;7.70;99.90
19000;DHT22;9633;50.980;13.850;2023-04-25T01:51:04;7.70;99.90
19000;DHT22;9633;50.980;13.850;2023-04-25T01:52:38;7.60;99.90
19000;DHT22;9633;50.980;13.850;2023-04-25T01:54:12;7.50;99.90
19000;DHT22;9633;50.980;13.850;2023-04-25T01:55:46;7.50;99.90
19000;DHT22;9633;50.980;13.850;2023-04-25T01:57:22;7.50;99.90
19000;DHT22;9633;50.980;13.850;2023-04-25T01:58:54;7.40;99.90
19000;DHT22;9633;50.980;13.850;2023-04-25T02:00:43;7.40;99.90
19000;DHT22;9633;50.980;13.850;2023-04-25T02:02:16;7.40;99.90
19000;DHT22;9633;50.980;13.850;2023-04-25T02:03:50;7.30;99.90
19000;DHT22;9633;50.980;13.850;2023-04-25T02:05:38;7.30;99.90
19000;DHT22;9633;50.980;13.850;2023-04-25T02:07:14;7.30;99.90
19000;DHT22;9633;50.980;13.850;2023-04-25T02:08:58;7.20;99.90
19000;DHT22;9633;50.980;13.850;2023-04-25T02:10:31;7.20;99.90
19000;DHT22;9633;50.980;13.850;2023-04-25T02:12:18;7.20;99.90
19000;DHT22;9633;50.980;13.850;2023-04-25T02:14:07;7.20;99.90
19000;DHT22;9633;50.980;13.850;2023-04-25T02:15:52;7.20;99.90
19000;DHT22;9633;50.980;13.850;2023-04-25T02:17:25;7.10;99.90
19000;DHT22;9633;50.980;13.850;2023-04-25T02:18:58;7.20;99.90
19000;DHT22;9633;50.980;13.850;2023-04-25T02:20:32;7.20;99.90
19000;DHT22;9633;50.980;13.850;2023-04-25T02:22:06;7.20;99.90
19000;DHT22;9633;50.980;13.850;2023-04-25T02:23:39;7.20;99.90
19000;DHT22;9633;50.980;13.850;2023-04-25T02:25:14;7.20;99.90
19000;DHT22;9633;50.980;13.850;2023-04-25T02:26:47;7.20;99.90
19000;DHT22;9633;50.980;13.850;2023-04-25T02:28:21;7.20;99.90
19000;DHT22;9633;50.980;13.850;2023-04-25T02:29:54;7.20;99.90
19000;DHT22;9633;50.980;13.850;2023-04-25T02:31:26;7.20;99.90
19000;DHT22;9633;50.980;13.850;2023-04-25T02:32:59;7.20;99.90
19000;DHT22;9633;50.980;13.850;2023-04-25T02:34:33;7.20;99.90
19000;DHT22;9633;50.980;13.850;2023-04-25T02:36:07;7.20;99.90
19000;DHT22;9633;50.980;13.850;2023-04-25T02:37:40;7.20;99.90
19000;DHT22;9633;50.980;13.850;2023-04-25T02:39:13;7.20;99.90
19000;DHT22;9633;50.980;13.850;2023-04-25T02:40:48;7.20;99.90
19000;DHT22;9633;50.980;13.850;2023-04-25T02:42:22;7.10;99.90
19000;DHT22;9633;50.980;13.850;2023-04-25T02:43:55;7.10;99.90
19000;DHT22;9633;50.980;13.850;2023-04-25T02:45:28;7.10;99.90
19000;DHT22;9633;50.980;13.850;2023-04-25T02:47:02;7.00;99.90
19000;DHT22;9633;50.980;13.850;2023-04-25T02:48:35;7.00;99.90
19000;DHT22;9633;50.980;13.850;2023-04-25T02:50:07;6.90;99.90
19000;DHT22;9633;50.980;13.850;2023-04-25T02:51:41;6.90;99.90
19000;DHT22;9633;50.980;13.850;2023-04-25T02:53:14;6.90;99.90
19000;DHT22;9633;50.980;13.850;2023-04-25T02:54:52;6.80;99.90
19000;DHT22;9633;50.980;13.850;2023-04-25T02:56:26;6.80;99.90
19000;DHT22;9633;50.980;13.850;2023-04-25T02:57:58;6.70;99.90
19000;DHT22;9633;50.980;13.850;2023-04-25T02:59:48;6.70;99.90
19000;DHT22;9633;50.980;13.850;2023-04-25T03:01:21;6.80;99.90
19000;DHT22;9633;50.980;13.850;2023-04-25T03:02:53;6.80;99.90
19000;DHT22;9633;50.980;13.850;2023-04-25T03:04:27;6.80;99.90
19000;DHT22;9633;50.980;13.850;2023-04-25T03:06:00;6.80;99.90
19000;DHT22;9633;50.980;13.850;2023-04-25T03:07:36;6.80;99.90
19000;DHT22;9633;50.980;13.850;2023-04-25T03:09:11;6.80;99.90
19000;DHT22;9633;50.980;13.850;2023-04-25T03:10:44;6.80;99.90
19000;DHT22;9633;50.980;13.850;2023-04-25T03:12:21;6.80;99.90
19000;DHT22;9633;50.980;13.850;2023-04-25T03:13:54;6.80;99.90
19000;DHT22;9633;50.980;13.850;2023-04-25T03:15:27;6.80;99.90
19000;DHT22;9633;50.980;13.850;2023-04-25T03:17:00;6.80;99.90
19000;DHT22;9633;50.980;13.850;2023-04-25T03:18:34;6.80;99.90
19000;DHT22;9633;50.980;13.850;2023-04-25T03:20:08;6.70;99.90
19000;DHT22;9633;50.980;13.850;2023-04-25T03:21:42;6.70;99.90
19000;DHT22;9633;50.980;13.850;2023-04-25T03:23:17;6.80;99.90
19000;DHT22;9633;50.980;13.850;2023-04-25T03:24:50;6.80;99.90
19000;DHT22;9633;50.980;13.850;2023-04-25T03:26:24;6.90;99.90
19000;DHT22;9633;50.980;13.850;2023-04-25T03:27:58;6.90;99.90
19000;DHT22;9633;50.980;13.850;2023-04-25T03:29:32;6.90;99.90
19000;DHT22;9633;50.980;13.850;2023-04-25T03:31:08;6.90;99.90
19000;DHT22;9633;50.980;13.850;2023-04-25T03:32:40;6.80;99.90
19000;DHT22;9633;50.980;13.850;2023-04-25T03:34:13;6.80;99.90
19000;DHT22;9633;50.980;13.850;2023-04-25T03:35:46;6.80;99.90
19000;DHT22;9633;50.980;13.850;2023-04-25T03:37:19;6.80;99.90
19000;DHT22;9633;50.980;13.850;2023-04-25T03:38:53;6.80;99.90
19000;DHT22;9633;50.980;13.850;2023-04-25T03:40:26;6.80;99.90
19000;DHT22;9633;50.980;13.850;2023-04-25T03:42:12;6.80;99.90
19000;DHT22;9633;50.980;13.850;2023-04-25T03:43:49;6.80;99.90
19000;DHT22;9633;50.980;13.850;2023-04-25T03:45:23;6.80;99.90
19000;DHT22;9633;50.980;13.850;2023-04-25T03:46:56;6.80;99.90
19000;DHT22;9633;50.980;13.850;2023-04-25T03:48:29;6.90;99.90
19000;DHT22;9633;50.980;13.850;2023-04-25T03:50:03;6.80;99.90
19000;DHT22;9633;50.980;13.850;2023-04-25T03:51:36;6.80;99.90
19000;DHT22;9633;50.980;13.850;2023-04-25T03:53:10;6.80;99.90
19000;DHT22;9633;50.980;13.850;2023-04-25T03:55:04;6.70;99.90
19000;DHT22;9633;50.980;13.850;2023-04-25T03:56:37;6.70;99.90
19000;DHT22;9633;50.980;13.850;2023-04-25T03:58:20;6.70;99.90
19000;DHT22;9633;50.980;13.850;2023-04-25T03:59:56;6.70;99.90
19000;DHT22;9633;50.980;13.850;2023-04-25T04:01:29;6.70;99.90
19000;DHT22;9633;50.980;13.850;2023-04-25T04:03:02;6.60;99.90
19000;DHT22;9633;50.980;13.850;2023-04-25T04:04:35;6.50;99.90
19000;DHT22;9633;50.980;13.850;2023-04-25T04:06:10;6.50;99.90
19000;DHT22;9633;50.980;13.850;2023-04-25T04:07:47;6.50;99.90
19000;DHT22;9633;50.980;13.850;2023-04-25T04:09:21;6.50;99.90
19000;DHT22;9633;50.980;13.850;2023-04-25T04:10:54;6.40;99.90
19000;DHT22;9633;50.980;13.850;2023-04-25T04:12:28;6.40;99.90
19000;DHT22;9633;50.980;13.850;2023-04-25T04:14:01;6.30;99.90
19000;DHT22;9633;50.980;13.850;2023-04-25T04:15:36;6.10;99.90
19000;DHT22;9633;50.980;13.850;2023-04-25T04:17:09;6.10;99.90
19000;DHT22;9633;50.980;13.850;2023-04-25T04:18:41;6.00;99.90
19000;DHT22;9633;50.980;13.850;2023-04-25T04:20:16;6.00;99.90
19000;DHT22;9633;50.980;13.850;2023-04-25T04:21:49;6.00;99.90
19000;DHT22;9633;50.980;13.850;2023-04-25T04:23:22;5.90;99.90
19000;DHT22;9633;50.980;13.850;2023-04-25T04:24:55;5.80;99.90
19000;DHT22;9633;50.980;13.850;2023-04-25T04:26:48;5.80;99.90
19000;DHT22;9633;50.980;13.850;2023-04-25T04:28:50;5.80;99.90
19000;DHT22;9633;50.980;13.850;2023-04-25T04:30:36;5.80;99.90
19000;DHT22;9633;50.980;13.850;2023-04-25T04:32:12;5.80;99.90
19000;DHT22;9633;50.980;13.850;2023-04-25T04:33:46;5.80;99.90
19000;DHT22;9633;50.980;13.850;2023-04-25T04:35:20;5.80;99.90
19000;DHT22;9633;50.980;13.850;2023-04-25T04:36:53;5.80;99.90
19000;DHT22;9633;50.980;13.850;2023-04-25T04:38:26;5.80;99.90
19000;DHT22;9633;50.980;13.850;2023-04-25T04:40:04;6.00;99.90
19000;DHT22;9633;50.980;13.850;2023-04-25T04:41:55;6.10;99.90
19000;DHT22;9633;50.980;13.850;2023-04-25T04:43:39;6.20;99.90
19000;DHT22;9633;50.980;13.850;2023-04-25T04:45:20;6.30;99.90
19000;DHT22;9633;50.980;13.850;2023-04-25T04:47:14;6.60;99.90
19000;DHT22;9633;50.980;13.850;2023-04-25T04:49:07;7.00;99.90
19000;DHT22;9633;50.980;13.850;2023-04-25T04:50:55;7.20;99.90
19000;DHT22;9633;50.980;13.850;2023-04-25T04:52:47;7.50;99.90
19000;DHT22;9633;50.980;13.850;2023-04-25T04:54:39;7.70;99.90
19000;DHT22;9633;50.980;13.850;2023-04-25T04:56:22;7.80;99.90
19000;DHT22;9633;50.980;13.850;2023-04-25T04:58:12;7.90;99.90
19000;DHT22;9633;50.980;13.850;2023-04-25T04:59:56;8.10;99.90
19000;DHT22;9633;50.980;13.850;2023-04-25T05:01:47;8.00;99.90
19000;DHT22;9633;50.980;13.850;2023-04-25T05:03:42;8.00;99.90
19000;DHT22;9633;50.980;13.850;2023-04-25T05:05:28;7.80;99.90
19000;DHT22;9633;50.980;13.850;2023-04-25T05:07:04;7.70;99.90
19000;DHT22;9633;50.980;13.850;2023-04-25T05:08:51;7.50;99.90
19000;DHT22;9633;50.980;13.850;2023-04-25T05:10:35;7.60;99.90
19000;DHT22;9633;50.980;13.850;2023-04-25T05:12:22;7.80;99.90
19000;DHT22;9633;50.980;13.850;2023-04-25T05:14:15;7.80;99.90
19000;DHT22;9633;50.980;13.850;2023-04-25T05:16:27;8.10;99.90
19000;DHT22;9633;50.980;13.850;2023-04-25T05:18:39;8.50;99.90
19000;DHT22;9633;50.980;13.850;2023-04-25T05:20:35;8.90;99.90
19000;DHT22;9633;50.980;13.850;2023-04-25T05:22:38;9.30;99.90
19000;DHT22;9633;50.980;13.850;2023-04-25T05:24:17;9.90;99.90
19000;DHT22;9633;50.980;13.850;2023-04-25T05:26:09;10.30;92.40
19000;DHT22;9633;50.980;13.850;2023-04-25T05:28:06;10.70;78.70
19000;DHT22;9633;50.980;13.850;2023-04-25T05:30:06;10.90;60.20
19000;DHT22;9633;50.980;13.850;2023-04-25T05:31:59;10.50;70.10
19000;DHT22;9633;50.980;13.850;2023-04-25T05:33:33;10.10;56.20
19000;DHT22;9633;50.980;13.850;2023-04-25T05:35:07;10.10;93.20
19000;DHT22;9633;50.980;13.850;2023-04-25T05:36:48;10.10;75.00
19000;DHT22;9633;50.980;13.850;2023-04-25T05:38:22;9.70;96.20
19000;DHT22;9633;50.980;13.850;2023-04-25T05:40:13;9.70;56.20
19000;DHT22;9633;50.980;13.850;2023-04-25T05:42:10;10.10;50.10
19000;DHT22;9633;50.980;13.850;2023-04-25T05:44:03;10.20;44.30
19000;DHT22;9633;50.980;13.850;2023-04-25T05:45:48;10.30;44.60
19000;DHT22;9633;50.980;13.850;2023-04-25T05:47:48;11.10;39.70
19000;DHT22;9633;50.980;13.850;2023-04-25T05:49:43;11.70;31.20
19000;DHT22;9633;50.980;13.850;2023-04-25T05:51:44;12.90;27.30
19000;DHT22;9633;50.980;13.850;2023-04-25T05:53:54;13.70;30.30
19000;DHT22;9633;50.980;13.850;2023-04-25T05:55:27;14.40;34.70
19000;DHT22;9633;50.980;13.850;2023-04-25T05:57:03;14.80;40.90
19000;DHT22;9633;50.980;13.850;2023-04-25T05:58:36;15.10;43.90
19000;DHT22;9633;50.980;13.850;2023-04-25T06:00:11;15.30;47.40
19000;DHT22;9633;50.980;13.850;2023-04-25T06:01:46;15.30;48.60
19000;DHT22;9633;50.980;13.850;2023-04-25T06:03:19;14.60;50.60
19000;DHT22;9633;50.980;13.850;2023-04-25T06:04:53;15.00;51.50
19000;DHT22;9633;50.980;13.850;2023-04-25T06:06:27;13.80;51.50
19000;DHT22;9633;50.980;13.850;2023-04-25T06:08:03;14.10;51.70
19000;DHT22;9633;50.980;13.850;2023-04-25T06:09:37;13.50;50.40
19000;DHT22;9633;50.980;13.850;2023-04-25T06:11:13;13.40;49.90
19000;DHT22;9633;50.980;13.850;2023-04-25T06:12:46;13.50;50.20
19000;DHT22;9633;50.980;13.850;2023-04-25T06:14:21;14.40;50.40
19000;DHT22;9633;50.980;13.850;2023-04-25T06:15:56;13.10;48.10
19000;DHT22;9633;50.980;13.850;2023-04-25T06:17:30;12.80;47.70
19000;DHT22;9633;50.980;13.850;2023-04-25T06:19:04;13.00;46.40
19000;DHT22;9633;50.980;13.850;2023-04-25T06:20:37;12.10;45.00
19000;DHT22;9633;50.980;13.850;2023-04-25T06:22:11;11.70;41.40
19000;DHT22;9633;50.980;13.850;2023-04-25T06:23:45;11.00;38.40
19000;DHT22;9633;50.980;13.850;2023-04-25T06:25:25;10.90;34.60
19000;DHT22;9633;50.980;13.850;2023-04-25T06:26:59;11.10;30.60
19000;DHT22;9633;50.980;13.850;2023-04-25T06:28:33;11.80;29.20
19000;DHT22;9633;50.980;13.850;2023-04-25T06:30:07;12.80;29.00
19000;DHT22;9633;50.980;13.850;2023-04-25T06:31:40;12.10;31.00
19000;DHT22;9633;50.980;13.850;2023-04-25T06:33:14;12.70;32.30
19000;DHT22;9633;50.980;13.850;2023-04-25T06:34:47;13.20;34.10
19000;DHT22;9633;50.980;13.850;2023-04-25T06:36:20;11.80;31.70
19000;DHT22;9633;50.980;13.850;2023-04-25T06:37:59;11.30;33.20
19000;DHT22;9633;50.980;13.850;2023-04-25T06:39:34;11.70;32.90
19000;DHT22;9633;50.980;13.850;2023-04-25T06:41:10;11.40;31.90
19000;DHT22;9633;50.980;13.850;2023-04-25T06:42:43;11.00;33.10
19000;DHT22;9633;50.980;13.850;2023-04-25T06:44:35;11.30;31.20
19000;DHT22;9633;50.980;13.850;2023-04-25T06:46:12;12.20;30.80
19000;DHT22;9633;50.980;13.850;2023-04-25T06:47:49;12.50;32.50
19000;DHT22;9633;50.980;13.850;2023-04-25T06:49:23;13.80;36.30
19000;DHT22;9633;50.980;13.850;2023-04-25T06:50:56;14.20;45.90
19000;DHT22;9633;50.980;13.850;2023-04-25T06:52:30;13.80;44.50
19000;DHT22;9633;50.980;13.850;2023-04-25T06:54:06;12.60;45.10
19000;DHT22;9633;50.980;13.850;2023-04-25T06:55:45;12.40;44.50
19000;DHT22;9633;50.980;13.850;2023-04-25T06:57:24;13.00;42.40
19000;DHT22;9633;50.980;13.850;2023-04-25T06:59:00;12.20;42.60
19000;DHT22;9633;50.980;13.850;2023-04-25T07:00:52;12.50;43.00
19000;DHT22;9633;50.980;13.850;2023-04-25T07:02:27;12.60;41.90
19000;DHT22;9633;50.980;13.850;2023-04-25T07:04:01;13.40;40.30
19000;DHT22;9633;50.980;13.850;2023-04-25T07:05:37;12.90;39.80
19000;DHT22;9633;50.980;13.850;2023-04-25T07:07:10;12.00;40.20
19000;DHT22;9633;50.980;13.850;2023-04-25T07:08:50;11.70;39.30
19000;DHT22;9633;50.980;13.850;2023-04-25T07:10:24;11.40;38.40
19000;DHT22;9633;50.980;13.850;2023-04-25T07:11:57;11.40;37.70
19000;DHT22;9633;50.980;13.850;2023-04-25T07:13:32;11.40;36.90
19000;DHT22;9633;50.980;13.850;2023-04-25T07:15:06;12.30;36.40
19000;DHT22;9633;50.980;13.850;2023-04-25T07:16:44;13.60;38.00
19000;DHT22;9633;50.980;13.850;2023-04-25T07:18:17;13.00;37.80
19000;DHT22;9633;50.980;13.850;2023-04-25T07:19:50;12.90;37.90
19000;DHT22;9633;50.980;13.850;2023-04-25T07:21:24;12.40;37.10
19000;DHT22;9633;50.980;13.850;2023-04-25T07:22:57;12.90;37.20
19000;DHT22;9633;50.980;13.850;2023-04-25T07:24:30;12.10;36.90
19000;DHT22;9633;50.980;13.850;2023-04-25T07:26:05;12.80;36.30
19000;DHT22;9633;50.980;13.850;2023-04-25T07:27:38;13.50;37.00
19000;DHT22;9633;50.980;13.850;2023-04-25T07:29:22;13.70;37.80
19000;DHT22;9633;50.980;13.850;2023-04-25T07:30:55;12.40;35.00
19000;DHT22;9633;50.980;13.850;2023-04-25T07:32:29;13.10;37.10
19000;DHT22;9633;50.980;13.850;2023-04-25T07:34:03;13.70;37.20
19000;DHT22;9633;50.980;13.850;2023-04-25T07:35:37;14.20;36.60
19000;DHT22;9633;50.980;13.850;2023-04-25T07:37:10;14.30;38.20
19000;DHT22;9633;50.980;13.850;2023-04-25T07:38:57;13.70;38.90
19000;DHT22;9633;50.980;13.850;2023-04-25T07:40:30;12.50;38.00
19000;DHT22;9633;50.980;13.850;2023-04-25T07:42:09;13.10;38.10
19000;DHT22;9633;50.980;13.850;2023-04-25T07:43:45;13.60;40.20
19000;DHT22;9633;50.980;13.850;2023-04-25T07:45:20;14.10;40.20
19000;DHT22;9633;50.980;13.850;2023-04-25T07:46:53;15.40;44.30
19000;DHT22;9633;50.980;13.850;2023-04-25T07:48:26;15.80;51.10
19000;DHT22;9633;50.980;13.850;2023-04-25T07:50:00;15.60;55.10
19000;DHT22;9633;50.980;13.850;2023-04-25T07:51:34;15.00;57.40
19000;DHT22;9633;50.980;13.850;2023-04-25T07:53:13;15.40;57.00
19000;DHT22;9633;50.980;13.850;2023-04-25T07:54:52;14.70;58.70
19000;DHT22;9633;50.980;13.850;2023-04-25T07:56:32;12.70;56.00
19000;DHT22;9633;50.980;13.850;2023-04-25T07:58:21;12.50;54.50
19000;DHT22;9633;50.980;13.850;2023-04-25T07:59:58;12.30;54.90
19000;DHT22;9633;50.980;13.850;2023-04-25T08:01:35;12.00;53.50
19000;DHT22;9633;50.980;13.850;2023-04-25T08:03:10;12.90;54.20
19000;DHT22;9633;50.980;13.850;2023-04-25T08:04:46;13.90;55.80
19000;DHT22;9633;50.980;13.850;2023-04-25T08:06:22;14.80;56.10
19000;DHT22;9633;50.980;13.850;2023-04-25T08:08:09;13.50;56.40
19000;DHT22;9633;50.980;13.850;2023-04-25T08:09:42;12.50;56.60
19000;DHT22;9633;50.980;13.850;2023-04-25T08:11:23;12.20;53.90
19000;DHT22;9633;50.980;13.850;2023-04-25T08:12:56;11.50;53.20
19000;DHT22;9633;50.980;13.850;2023-04-25T08:14:30;11.60;50.10
19000;DHT22;9633;50.980;13.850;2023-04-25T08:16:09;11.20;50.40
19000;DHT22;9633;50.980;13.850;2023-04-25T08:17:43;11.40;47.20
19000;DHT22;9633;50.980;13.850;2023-04-25T08:19:17;11.60;48.60
19000;DHT22;9633;50.980;13.850;2023-04-25T08:20:51;11.70;47.70
19000;DHT22;9633;50.980;13.850;2023-04-25T08:22:24;11.20;47.50
19000;DHT22;9633;50.980;13.850;2023-04-25T08:24:10;11.00;47.50
19000;DHT22;9633;50.980;13.850;2023-04-25T08:25:45;11.20;48.30
19000;DHT22;9633;50.980;13.850;2023-04-25T08:27:20;11.80;47.90
19000;DHT22;9633;50.980;13.850;2023-04-25T08:28:55;13.00;48.70
19000;DHT22;9633;50.980;13.850;2023-04-25T08:30:28;12.20;48.80
19000;DHT22;9633;50.980;13.850;2023-04-25T08:32:01;11.70;47.80
19000;DHT22;9633;50.980;13.850;2023-04-25T08:33:37;11.60;47.30
19000;DHT22;9633;50.980;13.850;2023-04-25T08:35:36;11.40;47.90
19000;DHT22;9633;50.980;13.850;2023-04-25T08:37:10;12.30;49.00
19000;DHT22;9633;50.980;13.850;2023-04-25T08:38:59;13.50;49.40
19000;DHT22;9633;50.980;13.850;2023-04-25T08:40:37;14.10;51.30
19000;DHT22;9633;50.980;13.850;2023-04-25T08:42:19;14.40;51.70
19000;DHT22;9633;50.980;13.850;2023-04-25T08:43:56;14.70;53.00
19000;DHT22;9633;50.980;13.850;2023-04-25T08:45:32;12.80;52.50
19000;DHT22;9633;50.980;13.850;2023-04-25T08:47:06;12.40;51.70
19000;DHT22;9633;50.980;13.850;2023-04-25T08:48:49;12.20;50.80
19000;DHT22;9633;50.980;13.850;2023-04-25T08:50:25;12.00;51.40
19000;DHT22;9633;50.980;13.850;2023-04-25T08:52:00;12.70;52.40
19000;DHT22;9633;50.980;13.850;2023-04-25T08:53:34;13.80;51.70
19000;DHT22;9633;50.980;13.850;2023-04-25T08:55:09;15.10;53.40
19000;DHT22;9633;50.980;13.850;2023-04-25T08:56:47;15.50;53.50
19000;DHT22;9633;50.980;13.850;2023-04-25T08:58:21;14.60;55.10
19000;DHT22;9633;50.980;13.850;2023-04-25T08:59:55;13.30;53.00
19000;DHT22;9633;50.980;13.850;2023-04-25T09:01:29;12.40;51.20
19000;DHT22;9633;50.980;13.850;2023-04-25T09:03:03;11.90;51.00
19000;DHT22;9633;50.980;13.850;2023-04-25T09:04:39;11.60;46.90
19000;DHT22;9633;50.980;13.850;2023-04-25T09:06:12;11.30;44.30
19000;DHT22;9633;50.980;13.850;2023-04-25T09:07:48;11.30;41.20
19000;DHT22;9633;50.980;13.850;2023-04-25T09:09:22;11.30;36.00
19000;DHT22;9633;50.980;13.850;2023-04-25T09:10:55;11.00;35.70
19000;DHT22;9633;50.980;13.850;2023-04-25T09:12:29;10.80;30.30
19000;DHT22;9633;50.980;13.850;2023-04-25T09:14:14;11.10;27.50
19000;DHT22;9633;50.980;13.850;2023-04-25T09:16:03;11.10;26.20
19000;DHT22;9633;50.980;13.850;2023-04-25T09:18:04;11.10;26.80
19000;DHT22;9633;50.980;13.850;2023-04-25T09:19:43;11.20;26.50
19000;DHT22;9633;50.980;13.850;2023-04-25T09:21:28;11.40;25.40
19000;DHT22;9633;50.980;13.850;2023-04-25T09:23:04;11.50;25.80
19000;DHT22;9633;50.980;13.850;2023-04-25T09:24:43;11.70;25.60
19000;DHT22;9633;50.980;13.850;2023-04-25T09:26:19;11.20;26.70
19000;DHT22;9633;50.980;13.850;2023-04-25T09:27:54;11.20;26.30
19000;DHT22;9633;50.980;13.850;2023-04-25T09:29:34;11.40;26.10
19000;DHT22;9633;50.980;13.850;2023-04-25T09:31:09;11.30;25.70
19000;DHT22;9633;50.980;13.850;2023-04-25T09:32:50;11.10;25.70
19000;DHT22;9633;50.980;13.850;2023-04-25T09:34:25;10.90;24.80
19000;DHT22;9633;50.980;13.850;2023-04-25T09:36:04;10.90;24.20
19000;DHT22;9633;50.980;13.850;2023-04-25T09:37:57;10.90;24.90
19000;DHT22;9633;50.980;13.850;2023-04-25T09:39:53;10.70;23.80
19000;DHT22;9633;50.980;13.850;2023-04-25T09:41:26;10.40;23.80
19000;DHT22;9633;50.980;13.850;2023-04-25T09:43:09;10.30;19.50
19000;DHT22;9633;50.980;13.850;2023-04-25T09:44:43;10.20;20.90
19000;DHT22;9633;50.980;13.850;2023-04-25T09:46:17;10.10;20.40
19000;DHT22;9633;50.980;13.850;2023-04-25T09:48:03;10.30;22.50
19000;DHT22;9633;50.980;13.850;2023-04-25T09:49:41;10.10;17.40
19000;DHT22;9633;50.980;13.850;2023-04-25T09:51:18;10.50;19.60
19000;DHT22;9633;50.980;13.850;2023-04-25T09:53:03;10.70;16.40
19000;DHT22;9633;50.980;13.850;2023-04-25T09:54:52;10.80;14.10
19000;DHT22;9633;50.980;13.850;2023-04-25T09:56:36;10.90;19.30
19000;DHT22;9633;50.980;13.850;2023-04-25T09:58:12;10.90;17.60
19000;DHT22;9633;50.980;13.850;2023-04-25T09:59:47;11.00;14.00
19000;DHT22;9633;50.980;13.850;2023-04-25T10:01:21;10.60;14.80
19000;DHT22;9633;50.980;13.850;2023-04-25T10:03:11;10.40;18.40
19000;DHT22;9633;50.980;13.850;2023-04-25T10:05:12;10.30;19.00
19000;DHT22;9633;50.980;13.850;2023-04-25T10:06:48;10.30;13.60
19000;DHT22;9633;50.980;13.850;2023-04-25T10:08:22;10.00;16.70
19000;DHT22;9633;50.980;13.850;2023-04-25T10:10:00;10.10;17.10
19000;DHT22;9633;50.980;13.850;2023-04-25T10:11:35;10.10;18.50
19000;DHT22;9633;50.980;13.850;2023-04-25T10:13:09;10.10;17.40
19000;DHT22;9633;50.980;13.850;2023-04-25T10:14:43;10.00;16.60
19000;DHT22;9633;50.980;13.850;2023-04-25T10:16:17;10.10;17.90
19000;DHT22;9633;50.980;13.850;2023-04-25T10:17:51;10.00;21.30
19000;DHT22;9633;50.980;13.850;2023-04-25T10:19:24;10.20;20.60
19000;DHT22;9633;50.980;13.850;2023-04-25T10:21:01;10.20;19.50